sensor_id;sensor_type;location;lat;lon;timestamp;P1;durP1;ratioP1;P2;durP2;ratioP2
75760;SDS011;64373;46.136;8.830;2023-07-31T00:00:13;2.28;;;1.88;;
75760;SDS011;64373;46.136;8.830;2023-07-31T00:02:38;3.30;;;2.00;;
75760;SDS011;64373;46.136;8.830;2023-07-31T00:05:04;2.95;;;1.90;;
75760;SDS011;64373;46.136;8.830;2023-07-31T00:07:30;2.38;;;1.90;;
75760;SDS011;64373;46.136;8.830;2023-07-31T00:09:56;2.90;;;2.38;;
75760;SDS011;64373;46.136;8.830;2023-07-31T00:12:22;2.20;;;1.70;;
75760;SDS011;64373;46.136;8.830;2023-07-31T00:14:48;2.28;;;1.88;;
75760;SDS011;64373;46.136;8.830;2023-07-31T00:17:14;3.40;;;2.00;;
75760;SDS011;64373;46.136;8.830;2023-07-31T00:19:39;2.53;;;1.80;;
75760;SDS011;64373;46.136;8.830;2023-07-31T00:22:05;2.20;;;1.90;;
75760;SDS011;64373;46.136;8.830;2023-07-31T00:24:31;2.33;;;1.67;;
75760;SDS011;64373;46.136;8.830;2023-07-31T00:26:56;1.90;;;1.63;;
75760;SDS011;64373;46.136;8.830;2023-07-31T00:29:22;1.88;;;1.70;;
75760;SDS011;64373;46.136;8.830;2023-07-31T00:31:47;2.55;;;1.50;;
75760;SDS011;64373;46.136;8.830;2023-07-31T00:34:13;2.17;;;1.60;;
75760;SDS011;64373;46.136;8.830;2023-07-31T00:36:38;2.47;;;1.70;;
75760;SDS011;64373;46.136;8.830;2023-07-31T00:39:04;2.08;;;1.48;;
75760;SDS011;64373;46.136;8.830;2023-07-31T00:41:30;2.13;;;1.52;;
75760;SDS011;64373;46.136;8.830;2023-07-31T00:43:55;1.40;;;1.30;;
75760;SDS011;64373;46.136;8.830;2023-07-31T00:46:21;3.38;;;1.83;;
75760;SDS011;64373;46.136;8.830;2023-07-31T00:48:46;1.70;;;1.55;;
75760;SDS011;64373;46.136;8.830;2023-07-31T00:51:12;1.92;;;1.60;;
75760;SDS011;64373;46.136;8.830;2023-07-31T00:53:38;2.15;;;1.63;;
75760;SDS011;64373;46.136;8.830;2023-07-31T00:56:04;1.80;;;1.33;;
75760;SDS011;64373;46.136;8.830;2023-07-31T00:58:30;1.88;;;1.63;;
75760;SDS011;64373;46.136;8.830;2023-07-31T01:00:55;2.97;;;1.90;;
75760;SDS011;64373;46.136;8.830;2023-07-31T01:03:21;2.75;;;1.80;;
75760;SDS011;64373;46.136;8.830;2023-07-31T01:11:17;2.13;;;1.85;;
75760;SDS011;64373;46.136;8.830;2023-07-31T01:13:48;2.47;;;1.80;;
75760;SDS011;64373;46.136;8.830;2023-07-31T01:16:14;2.20;;;1.92;;
75760;SDS011;64373;46.136;8.830;2023-07-31T01:18:39;1.75;;;1.50;;
75760;SDS011;64373;46.136;8.830;2023-07-31T01:24:22;3.00;;;1.60;;
75760;SDS011;64373;46.136;8.830;2023-07-31T01:26:55;2.75;;;1.90;;
75760;SDS011;64373;46.136;8.830;2023-07-31T01:29:29;2.08;;;1.80;;
75760;SDS011;64373;46.136;8.830;2023-07-31T01:32:01;2.03;;;1.70;;
75760;SDS011;64373;46.136;8.830;2023-07-31T01:34:28;2.65;;;2.13;;
75760;SDS011;64373;46.136;8.830;2023-07-31T01:36:55;3.42;;;2.00;;
75760;SDS011;64373;46.136;8.830;2023-07-31T01:39:22;2.10;;;1.70;;
75760;SDS011;64373;46.136;8.830;2023-07-31T01:41:47;2.30;;;1.83;;
75760;SDS011;64373;46.136;8.830;2023-07-31T01:44:13;2.25;;;1.73;;
75760;SDS011;64373;46.136;8.830;2023-07-31T01:46:38;2.65;;;1.77;;
75760;SDS011;64373;46.136;8.830;2023-07-31T01:49:05;1.92;;;1.40;;
75760;SDS011;64373;46.136;8.830;2023-07-31T01:51:31;1.55;;;1.45;;
75760;SDS011;64373;46.136;8.830;2023-07-31T01:53:59;2.65;;;2.28;;
75760;SDS011;64373;46.136;8.830;2023-07-31T01:56:25;2.13;;;1.75;;
75760;SDS011;64373;46.136;8.830;2023-07-31T01:58:51;2.80;;;1.75;;
75760;SDS011;64373;46.136;8.830;2023-07-31T02:01:16;2.10;;;1.75;;
75760;SDS011;64373;46.136;8.830;2023-07-31T02:03:42;2.90;;;1.80;;
75760;SDS011;64373;46.136;8.830;2023-07-31T02:06:07;2.08;;;1.83;;
75760;SDS011;64373;46.136;8.830;2023-07-31T02:08:33;3.13;;;2.28;;
75760;SDS011;64373;46.136;8.830;2023-07-31T02:10:58;2.05;;;1.50;;
75760;SDS011;64373;46.136;8.830;2023-07-31T02:13:24;3.15;;;1.67;;
75760;SDS011;64373;46.136;8.830;2023-07-31T02:15:49;5.55;;;2.15;;
75760;SDS011;64373;46.136;8.830;2023-07-31T02:18:15;3.35;;;2.00;;
75760;SDS011;64373;46.136;8.830;2023-07-31T02:20:41;2.95;;;1.80;;
75760;SDS011;64373;46.136;8.830;2023-07-31T02:23:07;2.03;;;1.67;;
75760;SDS011;64373;46.136;8.830;2023-07-31T02:25:32;2.47;;;1.73;;
75760;SDS011;64373;46.136;8.830;2023-07-31T02:27:58;2.13;;;1.60;;
75760;SDS011;64373;46.136;8.830;2023-07-31T02:30:23;1.77;;;1.40;;
75760;SDS011;64373;46.136;8.830;2023-07-31T02:32:49;2.33;;;1.45;;
75760;SDS011;64373;46.136;8.830;2023-07-31T02:35:14;1.80;;;1.55;;
75760;SDS011;64373;46.136;8.830;2023-07-31T02:37:41;2.08;;;1.63;;
75760;SDS011;64373;46.136;8.830;2023-07-31T02:40:07;1.70;;;1.50;;
75760;SDS011;64373;46.136;8.830;2023-07-31T02:42:33;1.63;;;1.23;;
75760;SDS011;64373;46.136;8.830;2023-07-31T02:44:59;1.95;;;1.60;;
75760;SDS011;64373;46.136;8.830;2023-07-31T02:47:24;1.90;;;1.50;;
75760;SDS011;64373;46.136;8.830;2023-07-31T02:49:49;1.48;;;1.30;;
75760;SDS011;64373;46.136;8.830;2023-07-31T02:52:15;2.80;;;1.90;;
75760;SDS011;64373;46.136;8.830;2023-07-31T02:54:40;2.28;;;1.58;;
75760;SDS011;64373;46.136;8.830;2023-07-31T02:57:06;1.90;;;1.70;;
75760;SDS011;64373;46.136;8.830;2023-07-31T02:59:31;2.30;;;1.42;;
75760;SDS011;64373;46.136;8.830;2023-07-31T03:01:57;2.17;;;1.65;;
75760;SDS011;64373;46.136;8.830;2023-07-31T03:04:22;1.90;;;1.65;;
75760;SDS011;64373;46.136;8.830;2023-07-31T03:06:48;3.45;;;1.65;;
75760;SDS011;64373;46.136;8.830;2023-07-31T03:09:13;1.85;;;1.60;;
75760;SDS011;64373;46.136;8.830;2023-07-31T03:11:39;1.65;;;1.55;;
75760;SDS011;64373;46.136;8.830;2023-07-31T03:14:04;2.13;;;1.70;;
75760;SDS011;64373;46.136;8.830;2023-07-31T03:16:30;1.70;;;1.55;;
75760;SDS011;64373;46.136;8.830;2023-07-31T03:18:55;1.95;;;1.52;;
75760;SDS011;64373;46.136;8.830;2023-07-31T03:21:21;2.42;;;1.80;;
75760;SDS011;64373;46.136;8.830;2023-07-31T03:23:47;3.15;;;2.22;;
75760;SDS011;64373;46.136;8.830;2023-07-31T03:26:12;3.10;;;1.80;;
75760;SDS011;64373;46.136;8.830;2023-07-31T03:28:38;1.67;;;1.48;;
75760;SDS011;64373;46.136;8.830;2023-07-31T03:31:04;1.88;;;1.58;;
75760;SDS011;64373;46.136;8.830;2023-07-31T03:33:29;2.20;;;1.70;;
75760;SDS011;64373;46.136;8.830;2023-07-31T03:35:55;2.75;;;1.50;;
75760;SDS011;64373;46.136;8.830;2023-07-31T03:38:20;1.95;;;1.40;;
75760;SDS011;64373;46.136;8.830;2023-07-31T03:40:46;1.95;;;1.70;;
75760;SDS011;64373;46.136;8.830;2023-07-31T03:43:11;2.05;;;1.80;;
75760;SDS011;64373;46.136;8.830;2023-07-31T03:45:37;3.75;;;1.80;;
75760;SDS011;64373;46.136;8.830;2023-07-31T03:48:03;2.50;;;2.05;;
75760;SDS011;64373;46.136;8.830;2023-07-31T03:50:29;1.67;;;1.58;;
75760;SDS011;64373;46.136;8.830;2023-07-31T03:52:54;2.92;;;1.60;;
75760;SDS011;64373;46.136;8.830;2023-07-31T03:55:20;2.45;;;2.00;;
75760;SDS011;64373;46.136;8.830;2023-07-31T03:57:47;2.05;;;1.60;;
75760;SDS011;64373;46.136;8.830;2023-07-31T04:00:13;1.73;;;1.50;;
75760;SDS011;64373;46.136;8.830;2023-07-31T04:02:38;1.40;;;1.23;;
75760;SDS011;64373;46.136;8.830;2023-07-31T04:05:04;2.70;;;1.70;;
75760;SDS011;64373;46.136;8.830;2023-07-31T04:07:30;2.15;;;1.67;;
75760;SDS011;64373;46.136;8.830;2023-07-31T04:09:56;1.98;;;1.60;;
75760;SDS011;64373;46.136;8.830;2023-07-31T04:12:22;1.60;;;1.30;;
75760;SDS011;64373;46.136;8.830;2023-07-31T04:14:47;2.25;;;1.95;;
75760;SDS011;64373;46.136;8.830;2023-07-31T04:17:13;2.00;;;1.52;;
75760;SDS011;64373;46.136;8.830;2023-07-31T04:19:38;1.83;;;1.73;;
75760;SDS011;64373;46.136;8.830;2023-07-31T04:22:04;2.42;;;2.00;;
75760;SDS011;64373;46.136;8.830;2023-07-31T04:24:29;2.25;;;2.05;;
75760;SDS011;64373;46.136;8.830;2023-07-31T04:26:55;2.22;;;1.60;;
75760;SDS011;64373;46.136;8.830;2023-07-31T04:29:21;2.28;;;1.70;;
75760;SDS011;64373;46.136;8.830;2023-07-31T04:31:47;1.90;;;1.63;;
75760;SDS011;64373;46.136;8.830;2023-07-31T04:34:13;2.05;;;1.70;;
75760;SDS011;64373;46.136;8.830;2023-07-31T04:36:38;2.20;;;1.67;;
75760;SDS011;64373;46.136;8.830;2023-07-31T04:39:04;2.15;;;1.90;;
75760;SDS011;64373;46.136;8.830;2023-07-31T04:41:29;2.25;;;1.55;;
75760;SDS011;64373;46.136;8.830;2023-07-31T04:43:55;2.22;;;1.70;;
75760;SDS011;64373;46.136;8.830;2023-07-31T04:46:20;1.70;;;1.52;;
75760;SDS011;64373;46.136;8.830;2023-07-31T04:48:46;2.28;;;1.70;;
75760;SDS011;64373;46.136;8.830;2023-07-31T04:51:12;2.63;;;1.80;;
75760;SDS011;64373;46.136;8.830;2023-07-31T04:53:37;3.30;;;1.77;;
75760;SDS011;64373;46.136;8.830;2023-07-31T04:56:03;2.83;;;1.70;;
75760;SDS011;64373;46.136;8.830;2023-07-31T04:58:29;1.75;;;1.27;;
75760;SDS011;64373;46.136;8.830;2023-07-31T05:00:54;1.58;;;1.23;;
75760;SDS011;64373;46.136;8.830;2023-07-31T05:03:20;1.95;;;1.33;;
75760;SDS011;64373;46.136;8.830;2023-07-31T05:05:45;1.20;;;1.10;;
75760;SDS011;64373;46.136;8.830;2023-07-31T05:08:11;2.38;;;1.25;;
75760;SDS011;64373;46.136;8.830;2023-07-31T05:10:37;1.73;;;1.60;;
75760;SDS011;64373;46.136;8.830;2023-07-31T05:13:02;2.22;;;1.20;;
75760;SDS011;64373;46.136;8.830;2023-07-31T05:15:28;1.92;;;1.73;;
75760;SDS011;64373;46.136;8.830;2023-07-31T05:17:54;1.67;;;1.20;;
75760;SDS011;64373;46.136;8.830;2023-07-31T05:20:20;1.55;;;1.20;;
75760;SDS011;64373;46.136;8.830;2023-07-31T05:22:46;1.40;;;1.00;;
75760;SDS011;64373;46.136;8.830;2023-07-31T05:25:12;1.98;;;1.60;;
75760;SDS011;64373;46.136;8.830;2023-07-31T05:27:38;1.85;;;1.40;;
75760;SDS011;64373;46.136;8.830;2023-07-31T05:30:04;1.88;;;1.27;;
75760;SDS011;64373;46.136;8.830;2023-07-31T05:32:30;1.80;;;1.70;;
75760;SDS011;64373;46.136;8.830;2023-07-31T05:34:56;1.50;;;1.30;;
75760;SDS011;64373;46.136;8.830;2023-07-31T05:37:21;1.48;;;1.30;;
75760;SDS011;64373;46.136;8.830;2023-07-31T05:39:47;1.38;;;1.27;;
75760;SDS011;64373;46.136;8.830;2023-07-31T05:42:13;1.30;;;1.10;;
75760;SDS011;64373;46.136;8.830;2023-07-31T05:44:38;1.55;;;1.35;;
75760;SDS011;64373;46.136;8.830;2023-07-31T05:47:04;1.80;;;1.35;;
75760;SDS011;64373;46.136;8.830;2023-07-31T05:49:30;1.77;;;1.45;;
75760;SDS011;64373;46.136;8.830;2023-07-31T05:51:55;2.00;;;1.50;;
75760;SDS011;64373;46.136;8.830;2023-07-31T05:54:21;1.75;;;1.33;;
75760;SDS011;64373;46.136;8.830;2023-07-31T05:56:46;1.70;;;1.20;;
75760;SDS011;64373;46.136;8.830;2023-07-31T05:59:12;1.58;;;1.30;;
75760;SDS011;64373;46.136;8.830;2023-07-31T06:01:38;2.05;;;1.33;;
75760;SDS011;64373;46.136;8.830;2023-07-31T06:04:04;1.30;;;1.20;;
75760;SDS011;64373;46.136;8.830;2023-07-31T06:06:30;2.25;;;1.60;;
75760;SDS011;64373;46.136;8.830;2023-07-31T06:08:56;3.10;;;1.60;;
75760;SDS011;64373;46.136;8.830;2023-07-31T06:11:22;2.33;;;1.75;;
75760;SDS011;64373;46.136;8.830;2023-07-31T06:13:51;2.22;;;1.50;;
75760;SDS011;64373;46.136;8.830;2023-07-31T06:16:17;3.08;;;1.70;;
75760;SDS011;64373;46.136;8.830;2023-07-31T06:18:42;3.88;;;2.17;;
75760;SDS011;64373;46.136;8.830;2023-07-31T06:21:08;3.13;;;1.98;;
75760;SDS011;64373;46.136;8.830;2023-07-31T06:23:34;2.72;;;1.80;;
75760;SDS011;64373;46.136;8.830;2023-07-31T06:26:00;2.42;;;1.60;;
75760;SDS011;64373;46.136;8.830;2023-07-31T06:28:29;2.13;;;1.38;;
75760;SDS011;64373;46.136;8.830;2023-07-31T06:30:55;1.92;;;1.58;;
75760;SDS011;64373;46.136;8.830;2023-07-31T06:33:22;1.45;;;1.23;;
75760;SDS011;64373;46.136;8.830;2023-07-31T06:35:47;1.98;;;1.70;;
75760;SDS011;64373;46.136;8.830;2023-07-31T06:38:13;3.20;;;1.75;;
75760;SDS011;64373;46.136;8.830;2023-07-31T06:40:38;2.42;;;1.67;;
75760;SDS011;64373;46.136;8.830;2023-07-31T06:43:04;2.97;;;1.90;;
75760;SDS011;64373;46.136;8.830;2023-07-31T06:45:35;2.28;;;1.42;;
75760;SDS011;64373;46.136;8.830;2023-07-31T06:48:01;2.17;;;1.58;;
75760;SDS011;64373;46.136;8.830;2023-07-31T06:50:29;1.92;;;1.20;;
75760;SDS011;64373;46.136;8.830;2023-07-31T06:52:57;2.28;;;1.50;;
75760;SDS011;64373;46.136;8.830;2023-07-31T06:55:23;1.88;;;1.48;;
75760;SDS011;64373;46.136;8.830;2023-07-31T06:57:50;2.38;;;1.40;;
75760;SDS011;64373;46.136;8.830;2023-07-31T07:00:17;1.98;;;1.55;;
75760;SDS011;64373;46.136;8.830;2023-07-31T07:02:44;1.60;;;1.50;;
75760;SDS011;64373;46.136;8.830;2023-07-31T07:05:09;2.53;;;1.88;;
75760;SDS011;64373;46.136;8.830;2023-07-31T07:07:35;1.77;;;1.42;;
75760;SDS011;64373;46.136;8.830;2023-07-31T07:10:01;1.98;;;1.70;;
75760;SDS011;64373;46.136;8.830;2023-07-31T07:12:29;1.88;;;1.33;;
75760;SDS011;64373;46.136;8.830;2023-07-31T07:14:55;2.63;;;2.10;;
75760;SDS011;64373;46.136;8.830;2023-07-31T07:17:22;2.20;;;1.73;;
75760;SDS011;64373;46.136;8.830;2023-07-31T07:19:48;2.22;;;1.63;;
75760;SDS011;64373;46.136;8.830;2023-07-31T07:22:14;2.08;;;1.52;;
75760;SDS011;64373;46.136;8.830;2023-07-31T07:24:39;2.22;;;1.90;;
75760;SDS011;64373;46.136;8.830;2023-07-31T07:27:05;2.63;;;2.08;;
75760;SDS011;64373;46.136;8.830;2023-07-31T07:29:31;4.20;;;2.38;;
75760;SDS011;64373;46.136;8.830;2023-07-31T07:31:57;2.80;;;2.10;;
75760;SDS011;64373;46.136;8.830;2023-07-31T07:34:23;3.17;;;2.30;;
75760;SDS011;64373;46.136;8.830;2023-07-31T07:36:51;1.90;;;1.67;;
75760;SDS011;64373;46.136;8.830;2023-07-31T07:39:16;2.72;;;1.70;;
75760;SDS011;64373;46.136;8.830;2023-07-31T07:41:42;2.63;;;1.60;;
75760;SDS011;64373;46.136;8.830;2023-07-31T07:44:07;2.05;;;1.75;;
75760;SDS011;64373;46.136;8.830;2023-07-31T07:46:33;2.75;;;2.30;;
75760;SDS011;64373;46.136;8.830;2023-07-31T07:48:59;3.25;;;2.20;;
75760;SDS011;64373;46.136;8.830;2023-07-31T07:51:24;3.03;;;2.25;;
75760;SDS011;64373;46.136;8.830;2023-07-31T07:53:50;3.00;;;2.20;;
75760;SDS011;64373;46.136;8.830;2023-07-31T07:56:16;4.30;;;2.08;;
75760;SDS011;64373;46.136;8.830;2023-07-31T07:58:41;2.95;;;2.30;;
75760;SDS011;64373;46.136;8.830;2023-07-31T08:01:07;2.30;;;2.08;;
75760;SDS011;64373;46.136;8.830;2023-07-31T08:03:32;2.50;;;2.22;;
75760;SDS011;64373;46.136;8.830;2023-07-31T08:05:58;2.92;;;2.00;;
75760;SDS011;64373;46.136;8.830;2023-07-31T08:08:24;2.60;;;2.20;;
75760;SDS011;64373;46.136;8.830;2023-07-31T08:10:52;2.38;;;2.00;;
75760;SDS011;64373;46.136;8.830;2023-07-31T08:13:26;2.35;;;2.15;;
75760;SDS011;64373;46.136;8.830;2023-07-31T08:16:03;2.67;;;2.05;;
75760;SDS011;64373;46.136;8.830;2023-07-31T08:18:33;2.75;;;2.20;;
75760;SDS011;64373;46.136;8.830;2023-07-31T08:21:05;2.22;;;1.88;;
75760;SDS011;64373;46.136;8.830;2023-07-31T08:23:55;2.35;;;1.95;;
75760;SDS011;64373;46.136;8.830;2023-07-31T08:26:25;2.40;;;2.00;;
75760;SDS011;64373;46.136;8.830;2023-07-31T08:32:00;2.25;;;1.98;;
75760;SDS011;64373;46.136;8.830;2023-07-31T08:34:26;3.80;;;2.22;;
75760;SDS011;64373;46.136;8.830;2023-07-31T08:36:51;4.05;;;2.40;;
75760;SDS011;64373;46.136;8.830;2023-07-31T08:39:17;2.47;;;2.13;;
75760;SDS011;64373;46.136;8.830;2023-07-31T08:41:43;3.38;;;2.45;;
75760;SDS011;64373;46.136;8.830;2023-07-31T08:44:10;3.63;;;2.40;;
75760;SDS011;64373;46.136;8.830;2023-07-31T08:46:36;2.75;;;2.22;;
75760;SDS011;64373;46.136;8.830;2023-07-31T08:49:03;2.80;;;2.17;;
75760;SDS011;64373;46.136;8.830;2023-07-31T08:51:31;3.05;;;2.38;;
75760;SDS011;64373;46.136;8.830;2023-07-31T08:53:58;3.10;;;2.10;;
75760;SDS011;64373;46.136;8.830;2023-07-31T08:56:24;5.93;;;2.08;;
75760;SDS011;64373;46.136;8.830;2023-07-31T08:58:51;2.38;;;2.08;;
75760;SDS011;64373;46.136;8.830;2023-07-31T09:01:18;3.53;;;2.78;;
75760;SDS011;64373;46.136;8.830;2023-07-31T09:03:43;2.70;;;2.10;;
75760;SDS011;64373;46.136;8.830;2023-07-31T09:06:09;3.05;;;2.17;;
75760;SDS011;64373;46.136;8.830;2023-07-31T09:08:35;3.35;;;2.00;;
75760;SDS011;64373;46.136;8.830;2023-07-31T09:11:01;2.80;;;2.03;;
75760;SDS011;64373;46.136;8.830;2023-07-31T09:13:31;2.58;;;2.10;;
75760;SDS011;64373;46.136;8.830;2023-07-31T09:15:57;2.13;;;1.92;;
75760;SDS011;64373;46.136;8.830;2023-07-31T09:18:24;2.45;;;2.00;;
75760;SDS011;64373;46.136;8.830;2023-07-31T09:21:00;2.58;;;2.00;;
75760;SDS011;64373;46.136;8.830;2023-07-31T09:25:53;1.73;;;1.60;;
75760;SDS011;64373;46.136;8.830;2023-07-31T09:28:18;1.83;;;1.55;;
75760;SDS011;64373;46.136;8.830;2023-07-31T09:30:45;2.78;;;1.65;;
75760;SDS011;64373;46.136;8.830;2023-07-31T09:33:19;1.98;;;1.52;;
75760;SDS011;64373;46.136;8.830;2023-07-31T09:35:46;1.60;;;1.50;;
75760;SDS011;64373;46.136;8.830;2023-07-31T09:38:13;1.55;;;1.45;;
75760;SDS011;64373;46.136;8.830;2023-07-31T09:40:47;1.70;;;1.60;;
75760;SDS011;64373;46.136;8.830;2023-07-31T09:43:16;2.10;;;1.90;;
75760;SDS011;64373;46.136;8.830;2023-07-31T09:45:46;1.65;;;1.55;;
75760;SDS011;64373;46.136;8.830;2023-07-31T09:48:15;1.52;;;1.30;;
75760;SDS011;64373;46.136;8.830;2023-07-31T09:50:43;2.38;;;1.90;;
75760;SDS011;64373;46.136;8.830;2023-07-31T09:53:12;2.15;;;1.95;;
75760;SDS011;64373;46.136;8.830;2023-07-31T09:55:38;2.25;;;1.73;;
75760;SDS011;64373;46.136;8.830;2023-07-31T09:58:07;2.17;;;1.85;;
75760;SDS011;64373;46.136;8.830;2023-07-31T10:00:34;2.00;;;1.80;;
75760;SDS011;64373;46.136;8.830;2023-07-31T10:03:01;1.88;;;1.67;;
75760;SDS011;64373;46.136;8.830;2023-07-31T10:05:34;2.35;;;2.15;;
75760;SDS011;64373;46.136;8.830;2023-07-31T10:08:04;2.85;;;2.58;;
75760;SDS011;64373;46.136;8.830;2023-07-31T10:10:31;2.65;;;2.45;;
75760;SDS011;64373;46.136;8.830;2023-07-31T10:12:57;2.35;;;2.15;;
75760;SDS011;64373;46.136;8.830;2023-07-31T10:15:25;2.10;;;1.90;;
75760;SDS011;64373;46.136;8.830;2023-07-31T10:17:51;2.83;;;2.63;;
75760;SDS011;64373;46.136;8.830;2023-07-31T10:20:17;3.33;;;2.58;;
75760;SDS011;64373;46.136;8.830;2023-07-31T10:22:43;2.65;;;2.45;;
75760;SDS011;64373;46.136;8.830;2023-07-31T10:25:11;2.80;;;2.58;;
75760;SDS011;64373;46.136;8.830;2023-07-31T10:27:38;3.25;;;2.53;;
75760;SDS011;64373;46.136;8.830;2023-07-31T10:30:04;2.60;;;2.40;;
75760;SDS011;64373;46.136;8.830;2023-07-31T10:32:31;2.30;;;2.10;;
75760;SDS011;64373;46.136;8.830;2023-07-31T10:34:57;2.40;;;2.20;;
75760;SDS011;64373;46.136;8.830;2023-07-31T10:37:27;2.10;;;1.90;;
75760;SDS011;64373;46.136;8.830;2023-07-31T10:40:11;2.42;;;2.22;;
75760;SDS011;64373;46.136;8.830;2023-07-31T10:42:48;3.10;;;2.35;;
75760;SDS011;64373;46.136;8.830;2023-07-31T10:45:25;2.55;;;2.20;;
75760;SDS011;64373;46.136;8.830;2023-07-31T10:47:59;2.63;;;2.13;;
75760;SDS011;64373;46.136;8.830;2023-07-31T10:50:27;3.35;;;2.10;;
75760;SDS011;64373;46.136;8.830;2023-07-31T10:52:54;2.72;;;2.40;;
75760;SDS011;64373;46.136;8.830;2023-07-31T10:55:30;2.13;;;1.80;;
75760;SDS011;64373;46.136;8.830;2023-07-31T10:58:04;3.25;;;2.30;;
75760;SDS011;64373;46.136;8.830;2023-07-31T11:00:32;2.53;;;2.15;;
75760;SDS011;64373;46.136;8.830;2023-07-31T11:02:58;2.38;;;2.17;;
75760;SDS011;64373;46.136;8.830;2023-07-31T11:08:19;2.05;;;1.85;;
75760;SDS011;64373;46.136;8.830;2023-07-31T11:13:31;2.25;;;1.98;;
75760;SDS011;64373;46.136;8.830;2023-07-31T11:15:58;2.58;;;2.13;;
75760;SDS011;64373;46.136;8.830;2023-07-31T11:18:29;2.30;;;2.00;;
75760;SDS011;64373;46.136;8.830;2023-07-31T11:21:00;2.03;;;1.83;;
75760;SDS011;64373;46.136;8.830;2023-07-31T11:23:30;3.65;;;2.40;;
75760;SDS011;64373;46.136;8.830;2023-07-31T11:26:00;2.53;;;2.00;;
75760;SDS011;64373;46.136;8.830;2023-07-31T11:28:31;2.60;;;2.40;;
75760;SDS011;64373;46.136;8.830;2023-07-31T11:30:59;2.33;;;2.13;;
75760;SDS011;64373;46.136;8.830;2023-07-31T11:33:25;3.08;;;2.78;;
75760;SDS011;64373;46.136;8.830;2023-07-31T11:35:50;2.78;;;2.38;;
75760;SDS011;64373;46.136;8.830;2023-07-31T11:38:22;3.00;;;2.60;;
75760;SDS011;64373;46.136;8.830;2023-07-31T11:40:55;2.50;;;2.30;;
75760;SDS011;64373;46.136;8.830;2023-07-31T11:43:23;3.15;;;2.45;;
75760;SDS011;64373;46.136;8.830;2023-07-31T11:45:56;3.15;;;2.30;;
75760;SDS011;64373;46.136;8.830;2023-07-31T11:48:26;3.42;;;2.53;;
75760;SDS011;64373;46.136;8.830;2023-07-31T11:51:02;2.97;;;2.38;;
75760;SDS011;64373;46.136;8.830;2023-07-31T11:53:36;2.60;;;2.40;;
75760;SDS011;64373;46.136;8.830;2023-07-31T11:56:05;2.25;;;2.00;;
75760;SDS011;64373;46.136;8.830;2023-07-31T11:58:33;2.70;;;2.30;;
75760;SDS011;64373;46.136;8.830;2023-07-31T12:01:00;2.67;;;2.47;;
75760;SDS011;64373;46.136;8.830;2023-07-31T12:03:26;3.25;;;2.10;;
75760;SDS011;64373;46.136;8.830;2023-07-31T12:05:54;2.88;;;2.65;;
75760;SDS011;64373;46.136;8.830;2023-07-31T12:08:36;2.47;;;2.28;;
75760;SDS011;64373;46.136;8.830;2023-07-31T12:11:14;3.45;;;2.40;;
75760;SDS011;64373;46.136;8.830;2023-07-31T12:13:40;3.15;;;2.70;;
75760;SDS011;64373;46.136;8.830;2023-07-31T12:16:08;3.40;;;2.20;;
75760;SDS011;64373;46.136;8.830;2023-07-31T12:18:34;2.90;;;2.65;;
75760;SDS011;64373;46.136;8.830;2023-07-31T12:21:02;3.03;;;2.60;;
75760;SDS011;64373;46.136;8.830;2023-07-31T12:23:32;3.05;;;2.55;;
75760;SDS011;64373;46.136;8.830;2023-07-31T12:26:02;2.63;;;2.42;;
75760;SDS011;64373;46.136;8.830;2023-07-31T12:28:41;2.83;;;2.50;;
75760;SDS011;64373;46.136;8.830;2023-07-31T12:31:08;3.55;;;3.00;;
75760;SDS011;64373;46.136;8.830;2023-07-31T12:33:36;4.78;;;2.70;;
75760;SDS011;64373;46.136;8.830;2023-07-31T12:36:08;3.10;;;2.90;;
75760;SDS011;64373;46.136;8.830;2023-07-31T12:38:41;2.75;;;2.55;;
75760;SDS011;64373;46.136;8.830;2023-07-31T12:41:08;4.05;;;2.60;;
75760;SDS011;64373;46.136;8.830;2023-07-31T12:43:40;3.25;;;2.95;;
75760;SDS011;64373;46.136;8.830;2023-07-31T12:49:16;3.72;;;3.42;;
75760;SDS011;64373;46.136;8.830;2023-07-31T12:51:42;3.63;;;2.55;;
75760;SDS011;64373;46.136;8.830;2023-07-31T12:54:07;3.67;;;3.38;;
75760;SDS011;64373;46.136;8.830;2023-07-31T12:56:33;3.03;;;2.80;;
75760;SDS011;64373;46.136;8.830;2023-07-31T12:58:59;3.22;;;2.92;;
75760;SDS011;64373;46.136;8.830;2023-07-31T13:01:24;3.67;;;3.38;;
75760;SDS011;64373;46.136;8.830;2023-07-31T13:03:51;4.63;;;3.55;;
75760;SDS011;64373;46.136;8.830;2023-07-31T13:06:16;4.03;;;3.63;;
75760;SDS011;64373;46.136;8.830;2023-07-31T13:08:42;4.40;;;3.97;;
75760;SDS011;64373;46.136;8.830;2023-07-31T13:11:07;4.13;;;3.72;;
75760;SDS011;64373;46.136;8.830;2023-07-31T13:13:33;3.92;;;3.63;;
75760;SDS011;64373;46.136;8.830;2023-07-31T13:15:58;3.83;;;3.53;;
75760;SDS011;64373;46.136;8.830;2023-07-31T13:18:24;4.63;;;4.15;;
75760;SDS011;64373;46.136;8.830;2023-07-31T13:20:50;4.63;;;3.80;;
75760;SDS011;64373;46.136;8.830;2023-07-31T13:23:15;4.40;;;4.00;;
75760;SDS011;64373;46.136;8.830;2023-07-31T13:25:41;4.03;;;3.72;;
75760;SDS011;64373;46.136;8.830;2023-07-31T13:28:06;3.90;;;3.55;;
75760;SDS011;64373;46.136;8.830;2023-07-31T13:30:32;4.20;;;3.80;;
75760;SDS011;64373;46.136;8.830;2023-07-31T13:32:58;4.28;;;3.90;;
75760;SDS011;64373;46.136;8.830;2023-07-31T13:35:24;4.00;;;3.70;;
75760;SDS011;64373;46.136;8.830;2023-07-31T13:37:49;4.07;;;3.78;;
75760;SDS011;64373;46.136;8.830;2023-07-31T13:40:15;3.80;;;3.50;;
75760;SDS011;64373;46.136;8.830;2023-07-31T13:42:40;4.18;;;3.88;;
75760;SDS011;64373;46.136;8.830;2023-07-31T13:45:06;4.10;;;3.78;;
75760;SDS011;64373;46.136;8.830;2023-07-31T13:47:32;4.05;;;3.75;;
75760;SDS011;64373;46.136;8.830;2023-07-31T13:49:58;4.15;;;3.55;;
75760;SDS011;64373;46.136;8.830;2023-07-31T13:52:25;4.22;;;3.83;;
75760;SDS011;64373;46.136;8.830;2023-07-31T13:54:50;4.22;;;3.83;;
75760;SDS011;64373;46.136;8.830;2023-07-31T13:57:16;4.18;;;3.75;;
75760;SDS011;64373;46.136;8.830;2023-07-31T13:59:42;4.25;;;3.85;;
75760;SDS011;64373;46.136;8.830;2023-07-31T14:02:07;4.10;;;3.72;;
75760;SDS011;64373;46.136;8.830;2023-07-31T14:04:33;4.60;;;3.80;;
75760;SDS011;64373;46.136;8.830;2023-07-31T14:06:59;3.55;;;3.25;;
75760;SDS011;64373;46.136;8.830;2023-07-31T14:09:24;3.90;;;3.50;;
75760;SDS011;64373;46.136;8.830;2023-07-31T14:11:51;3.08;;;2.88;;
75760;SDS011;64373;46.136;8.830;2023-07-31T14:14:16;3.72;;;3.42;;
75760;SDS011;64373;46.136;8.830;2023-07-31T14:16:43;3.47;;;3.17;;
75760;SDS011;64373;46.136;8.830;2023-07-31T14:19:09;3.80;;;3.50;;
75760;SDS011;64373;46.136;8.830;2023-07-31T14:21:34;4.05;;;3.72;;
75760;SDS011;64373;46.136;8.830;2023-07-31T14:24:00;4.22;;;3.92;;
75760;SDS011;64373;46.136;8.830;2023-07-31T14:26:26;4.68;;;4.28;;
75760;SDS011;64373;46.136;8.830;2023-07-31T14:28:52;4.40;;;4.00;;
75760;SDS011;64373;46.136;8.830;2023-07-31T14:31:18;3.75;;;3.45;;
75760;SDS011;64373;46.136;8.830;2023-07-31T14:33:43;3.90;;;3.50;;
75760;SDS011;64373;46.136;8.830;2023-07-31T14:36:09;3.92;;;3.53;;
75760;SDS011;64373;46.136;8.830;2023-07-31T14:38:34;4.00;;;3.70;;
75760;SDS011;64373;46.136;8.830;2023-07-31T14:41:00;3.97;;;3.58;;
75760;SDS011;64373;46.136;8.830;2023-07-31T14:43:25;3.38;;;3.17;;
75760;SDS011;64373;46.136;8.830;2023-07-31T14:45:51;4.50;;;4.10;;
75760;SDS011;64373;46.136;8.830;2023-07-31T14:48:18;4.32;;;3.92;;
75760;SDS011;64373;46.136;8.830;2023-07-31T14:50:44;3.92;;;3.63;;
75760;SDS011;64373;46.136;8.830;2023-07-31T14:53:09;4.32;;;3.83;;
75760;SDS011;64373;46.136;8.830;2023-07-31T14:55:35;3.75;;;3.45;;
75760;SDS011;64373;46.136;8.830;2023-07-31T14:58:01;3.92;;;3.63;;
75760;SDS011;64373;46.136;8.830;2023-07-31T15:00:28;3.40;;;3.10;;
75760;SDS011;64373;46.136;8.830;2023-07-31T15:02:53;4.32;;;3.92;;
75760;SDS011;64373;46.136;8.830;2023-07-31T15:05:19;4.50;;;4.10;;
75760;SDS011;64373;46.136;8.830;2023-07-31T15:07:45;4.20;;;3.88;;